<?xml version="1.0" encoding="UTF-8" standalone="no" ?>
<gpx xmlns="http://www.topografix.com/GPX/1/1" xmlns:xsi="http://www.w3.org/2001/XMLSchema-instance" xsi:schemaLocation="http://www.topografix.com/GPX/1/1 http://www.topografix.com/GPX/1/1/gpx.xsd" version="1.1" creator="VisuGPX - https://www.visugpx.com">
  <metadata>
    <name>cancerille départ different en venant de signes</name>
    <desc><![CDATA[depart en venant de signes]]></desc>
  </metadata>
  <trk>
    <name><![CDATA[cancerille départ different en venant de signes_1]]></name>
    <trkseg>
      <trkpt lat="43.27578" lon="5.89853">
        <ele>367</ele>
        <time>2022-02-13T15:41:10Z</time>
      </trkpt>
      <trkpt lat="43.27586" lon="5.89993">
        <ele>369</ele>
        <time>2022-02-13T15:41:34Z</time>
      </trkpt>
      <trkpt lat="43.27581" lon="5.90127">
        <ele>371</ele>
        <time>2022-02-13T15:41:57Z</time>
      </trkpt>
      <trkpt lat="43.27573" lon="5.90181">
        <ele>373</ele>
        <time>2022-02-13T15:42:06Z</time>
      </trkpt>
      <trkpt lat="43.27576" lon="5.90235">
        <ele>374</ele>
        <time>2022-02-13T15:42:16Z</time>
      </trkpt>
      <trkpt lat="43.27633" lon="5.90314">
        <ele>366</ele>
        <time>2022-02-13T15:42:34Z</time>
      </trkpt>
      <trkpt lat="43.27657" lon="5.90393">
        <ele>361</ele>
        <time>2022-02-13T15:42:49Z</time>
      </trkpt>
      <trkpt lat="43.27653" lon="5.90482">
        <ele>355</ele>
        <time>2022-02-13T15:43:04Z</time>
      </trkpt>
      <trkpt lat="43.27639" lon="5.90558">
        <ele>349</ele>
        <time>2022-02-13T15:43:17Z</time>
      </trkpt>
      <trkpt lat="43.27636" lon="5.90629">
        <ele>339</ele>
        <time>2022-02-13T15:43:30Z</time>
      </trkpt>
      <trkpt lat="43.27636" lon="5.90705">
        <ele>328</ele>
        <time>2022-02-13T15:43:42Z</time>
      </trkpt>
      <trkpt lat="43.27674" lon="5.90743">
        <ele>317</ele>
        <time>2022-02-13T15:43:53Z</time>
      </trkpt>
      <trkpt lat="43.27625" lon="5.90757">
        <ele>324</ele>
        <time>2022-02-13T15:44:05Z</time>
      </trkpt>
      <trkpt lat="43.27567" lon="5.90846">
        <ele>325</ele>
        <time>2022-02-13T15:44:25Z</time>
      </trkpt>
      <trkpt lat="43.27546" lon="5.90919">
        <ele>323</ele>
        <time>2022-02-13T15:44:39Z</time>
      </trkpt>
      <trkpt lat="43.27529" lon="5.90965">
        <ele>319</ele>
        <time>2022-02-13T15:44:48Z</time>
      </trkpt>
      <trkpt lat="43.27499" lon="5.90986">
        <ele>319</ele>
        <time>2022-02-13T15:44:55Z</time>
      </trkpt>
      <trkpt lat="43.27413" lon="5.91084">
        <ele>317</ele>
        <time>2022-02-13T15:45:22Z</time>
      </trkpt>
      <trkpt lat="43.27369" lon="5.91122">
        <ele>322</ele>
        <time>2022-02-13T15:45:34Z</time>
      </trkpt>
      <trkpt lat="43.27336" lon="5.91172">
        <ele>322</ele>
        <time>2022-02-13T15:45:45Z</time>
      </trkpt>
      <trkpt lat="43.27318" lon="5.91227">
        <ele>323</ele>
        <time>2022-02-13T15:45:55Z</time>
      </trkpt>
      <trkpt lat="43.27249" lon="5.9135">
        <ele>333</ele>
        <time>2022-02-13T15:46:22Z</time>
      </trkpt>
      <trkpt lat="43.27235" lon="5.91402">
        <ele>338</ele>
        <time>2022-02-13T15:46:31Z</time>
      </trkpt>
      <trkpt lat="43.27212" lon="5.91444">
        <ele>335</ele>
        <time>2022-02-13T15:46:40Z</time>
      </trkpt>
      <trkpt lat="43.27207" lon="5.915">
        <ele>329</ele>
        <time>2022-02-13T15:46:50Z</time>
      </trkpt>
      <trkpt lat="43.27258" lon="5.91573">
        <ele>316</ele>
        <time>2022-02-13T15:47:07Z</time>
      </trkpt>
      <trkpt lat="43.27223" lon="5.91567">
        <ele>318</ele>
        <time>2022-02-13T15:47:15Z</time>
      </trkpt>
      <trkpt lat="43.27202" lon="5.91594">
        <ele>316</ele>
        <time>2022-02-13T15:47:22Z</time>
      </trkpt>
      <trkpt lat="43.27179" lon="5.91652">
        <ele>313</ele>
        <time>2022-02-13T15:47:33Z</time>
      </trkpt>
      <trkpt lat="43.27152" lon="5.91779">
        <ele>322</ele>
        <time>2022-02-13T15:47:56Z</time>
      </trkpt>
      <trkpt lat="43.27155" lon="5.91816">
        <ele>326</ele>
        <time>2022-02-13T15:48:02Z</time>
      </trkpt>
      <trkpt lat="43.27147" lon="5.91863">
        <ele>333</ele>
        <time>2022-02-13T15:48:10Z</time>
      </trkpt>
      <trkpt lat="43.27132" lon="5.91892">
        <ele>338</ele>
        <time>2022-02-13T15:48:16Z</time>
      </trkpt>
      <trkpt lat="43.27105" lon="5.91917">
        <ele>340</ele>
        <time>2022-02-13T15:48:24Z</time>
      </trkpt>
      <trkpt lat="43.27079" lon="5.91949">
        <ele>338</ele>
        <time>2022-02-13T15:48:32Z</time>
      </trkpt>
      <trkpt lat="43.27074" lon="5.92">
        <ele>336</ele>
        <time>2022-02-13T15:48:41Z</time>
      </trkpt>
      <trkpt lat="43.27055" lon="5.92032">
        <ele>334</ele>
        <time>2022-02-13T15:48:48Z</time>
      </trkpt>
      <trkpt lat="43.27155" lon="5.92094">
        <ele>326</ele>
        <time>2022-02-13T15:49:13Z</time>
      </trkpt>
      <trkpt lat="43.27216" lon="5.92126">
        <ele>324</ele>
        <time>2022-02-13T15:49:29Z</time>
      </trkpt>
      <trkpt lat="43.27255" lon="5.92188">
        <ele>316</ele>
        <time>2022-02-13T15:49:43Z</time>
      </trkpt>
      <trkpt lat="43.27266" lon="5.92188">
        <ele>317</ele>
        <time>2022-02-13T15:49:45Z</time>
      </trkpt>
      <trkpt lat="43.27294" lon="5.92259">
        <ele>309</ele>
        <time>2022-02-13T15:49:59Z</time>
      </trkpt>
      <trkpt lat="43.27271" lon="5.92357">
        <ele>313</ele>
        <time>2022-02-13T15:50:16Z</time>
      </trkpt>
      <trkpt lat="43.27309" lon="5.92459">
        <ele>322</ele>
        <time>2022-02-13T15:50:36Z</time>
      </trkpt>
      <trkpt lat="43.27413" lon="5.92426">
        <ele>326</ele>
        <time>2022-02-13T15:51:01Z</time>
      </trkpt>
      <trkpt lat="43.274" lon="5.92435">
        <ele>325</ele>
        <time>2022-02-13T14:15:44Z</time>
      </trkpt>
      <trkpt lat="43.27297" lon="5.92447">
        <ele>321</ele>
        <time>2022-02-13T14:16:08Z</time>
      </trkpt>
      <trkpt lat="43.27296" lon="5.92248">
        <ele>309</ele>
        <time>2022-02-13T14:16:42Z</time>
      </trkpt>
      <trkpt lat="43.27179" lon="5.92109">
        <ele>324</ele>
        <time>2022-02-13T14:17:18Z</time>
      </trkpt>
      <trkpt lat="43.27063" lon="5.92036">
        <ele>332</ele>
        <time>2022-02-13T14:17:48Z</time>
      </trkpt>
      <trkpt lat="43.26992" lon="5.9208">
        <ele>336</ele>
        <time>2022-02-13T14:18:06Z</time>
      </trkpt>
      <trkpt lat="43.26967" lon="5.92122">
        <ele>341</ele>
        <time>2022-02-13T14:18:15Z</time>
      </trkpt>
      <trkpt lat="43.26926" lon="5.92219">
        <ele>348</ele>
        <time>2022-02-13T14:18:34Z</time>
      </trkpt>
      <trkpt lat="43.2689" lon="5.92279">
        <ele>356</ele>
        <time>2022-02-13T14:18:48Z</time>
      </trkpt>
      <trkpt lat="43.26873" lon="5.92332">
        <ele>356</ele>
        <time>2022-02-13T14:18:57Z</time>
      </trkpt>
      <trkpt lat="43.26864" lon="5.92397">
        <ele>352</ele>
        <time>2022-02-13T14:19:09Z</time>
      </trkpt>
      <trkpt lat="43.26832" lon="5.92576">
        <ele>335</ele>
        <time>2022-02-13T14:19:40Z</time>
      </trkpt>
      <trkpt lat="43.26809" lon="5.92679">
        <ele>337</ele>
        <time>2022-02-13T14:19:58Z</time>
      </trkpt>
      <trkpt lat="43.26771" lon="5.92728">
        <ele>339</ele>
        <time>2022-02-13T14:20:11Z</time>
      </trkpt>
      <trkpt lat="43.26749" lon="5.92816">
        <ele>334</ele>
        <time>2022-02-13T14:20:26Z</time>
      </trkpt>
      <trkpt lat="43.26789" lon="5.92913">
        <ele>339</ele>
        <time>2022-02-13T14:20:45Z</time>
      </trkpt>
      <trkpt lat="43.26781" lon="5.92983">
        <ele>341</ele>
        <time>2022-02-13T14:20:57Z</time>
      </trkpt>
      <trkpt lat="43.26742" lon="5.93037">
        <ele>340</ele>
        <time>2022-02-13T14:21:10Z</time>
      </trkpt>
      <trkpt lat="43.26686" lon="5.93159">
        <ele>339</ele>
        <time>2022-02-13T14:21:35Z</time>
      </trkpt>
      <trkpt lat="43.26659" lon="5.93271">
        <ele>323</ele>
        <time>2022-02-13T14:21:55Z</time>
      </trkpt>
      <trkpt lat="43.26626" lon="5.93352">
        <ele>323</ele>
        <time>2022-02-13T14:22:11Z</time>
      </trkpt>
      <trkpt lat="43.2663" lon="5.93439">
        <ele>315</ele>
        <time>2022-02-13T14:22:25Z</time>
      </trkpt>
      <trkpt lat="43.26752" lon="5.93506">
        <ele>296</ele>
        <time>2022-02-13T14:22:56Z</time>
      </trkpt>
      <trkpt lat="43.26834" lon="5.93603">
        <ele>296</ele>
        <time>2022-02-13T14:23:21Z</time>
      </trkpt>
      <trkpt lat="43.26882" lon="5.93761">
        <ele>300</ele>
        <time>2022-02-13T14:23:51Z</time>
      </trkpt>
      <trkpt lat="43.26893" lon="5.93904">
        <ele>285</ele>
        <time>2022-02-13T14:24:15Z</time>
      </trkpt>
      <trkpt lat="43.26875" lon="5.94164">
        <ele>272</ele>
        <time>2022-02-13T14:24:59Z</time>
      </trkpt>
      <trkpt lat="43.26774" lon="5.94286">
        <ele>280</ele>
        <time>2022-02-13T14:25:31Z</time>
      </trkpt>
      <trkpt lat="43.26656" lon="5.94327">
        <ele>282</ele>
        <time>2022-02-13T14:25:59Z</time>
      </trkpt>
      <trkpt lat="43.26622" lon="5.94343">
        <ele>280</ele>
        <time>2022-02-13T14:26:08Z</time>
      </trkpt>
      <trkpt lat="43.26607" lon="5.94307">
        <ele>286</ele>
        <time>2022-02-13T14:26:15Z</time>
      </trkpt>
      <trkpt lat="43.26585" lon="5.94271">
        <ele>288</ele>
        <time>2022-02-13T14:26:23Z</time>
      </trkpt>
      <trkpt lat="43.26562" lon="5.94168">
        <ele>300</ele>
        <time>2022-02-13T14:26:41Z</time>
      </trkpt>
      <trkpt lat="43.2658" lon="5.93926">
        <ele>303</ele>
        <time>2022-02-13T14:27:22Z</time>
      </trkpt>
      <trkpt lat="43.26588" lon="5.93861">
        <ele>306</ele>
        <time>2022-02-13T14:27:34Z</time>
      </trkpt>
      <trkpt lat="43.2666" lon="5.93802">
        <ele>311</ele>
        <time>2022-02-13T14:27:53Z</time>
      </trkpt>
      <trkpt lat="43.26678" lon="5.9377">
        <ele>314</ele>
        <time>2022-02-13T14:28:00Z</time>
      </trkpt>
      <trkpt lat="43.26678" lon="5.93705">
        <ele>318</ele>
        <time>2022-02-13T14:28:11Z</time>
      </trkpt>
      <trkpt lat="43.2667" lon="5.93654">
        <ele>320</ele>
        <time>2022-02-13T14:28:20Z</time>
      </trkpt>
      <trkpt lat="43.26648" lon="5.93659">
        <ele>324</ele>
        <time>2022-02-13T14:28:25Z</time>
      </trkpt>
      <trkpt lat="43.26641" lon="5.93705">
        <ele>323</ele>
        <time>2022-02-13T14:28:33Z</time>
      </trkpt>
      <trkpt lat="43.26631" lon="5.93739">
        <ele>322</ele>
        <time>2022-02-13T14:28:39Z</time>
      </trkpt>
      <trkpt lat="43.26614" lon="5.93754">
        <ele>322</ele>
        <time>2022-02-13T14:28:44Z</time>
      </trkpt>
      <trkpt lat="43.26593" lon="5.93765">
        <ele>323</ele>
        <time>2022-02-13T14:28:49Z</time>
      </trkpt>
      <trkpt lat="43.26579" lon="5.9375">
        <ele>329</ele>
        <time>2022-02-13T14:28:54Z</time>
      </trkpt>
      <trkpt lat="43.2656" lon="5.93683">
        <ele>344</ele>
        <time>2022-02-13T14:29:06Z</time>
      </trkpt>
      <trkpt lat="43.26549" lon="5.93673">
        <ele>348</ele>
        <time>2022-02-13T14:29:09Z</time>
      </trkpt>
      <trkpt lat="43.26532" lon="5.93623">
        <ele>356</ele>
        <time>2022-02-13T14:29:18Z</time>
      </trkpt>
      <trkpt lat="43.2653" lon="5.93568">
        <ele>359</ele>
        <time>2022-02-13T14:29:28Z</time>
      </trkpt>
      <trkpt lat="43.26518" lon="5.93511">
        <ele>365</ele>
        <time>2022-02-13T14:29:38Z</time>
      </trkpt>
      <trkpt lat="43.26521" lon="5.93491">
        <ele>365</ele>
        <time>2022-02-13T14:29:41Z</time>
      </trkpt>
      <trkpt lat="43.2651" lon="5.93491">
        <ele>370</ele>
        <time>2022-02-13T14:29:44Z</time>
      </trkpt>
      <trkpt lat="43.26504" lon="5.935">
        <ele>371</ele>
        <time>2022-02-13T14:29:46Z</time>
      </trkpt>
      <trkpt lat="43.26497" lon="5.93518">
        <ele>373</ele>
        <time>2022-02-13T14:29:49Z</time>
      </trkpt>
      <trkpt lat="43.2649" lon="5.93549">
        <ele>373</ele>
        <time>2022-02-13T14:29:55Z</time>
      </trkpt>
      <trkpt lat="43.26485" lon="5.93527">
        <ele>376</ele>
        <time>2022-02-13T14:29:59Z</time>
      </trkpt>
      <trkpt lat="43.26478" lon="5.93521">
        <ele>378</ele>
        <time>2022-02-13T14:30:01Z</time>
      </trkpt>
      <trkpt lat="43.26471" lon="5.93536">
        <ele>380</ele>
        <time>2022-02-13T14:30:04Z</time>
      </trkpt>
      <trkpt lat="43.26463" lon="5.93536">
        <ele>383</ele>
        <time>2022-02-13T14:30:06Z</time>
      </trkpt>
      <trkpt lat="43.26455" lon="5.93527">
        <ele>385</ele>
        <time>2022-02-13T14:30:08Z</time>
      </trkpt>
      <trkpt lat="43.26448" lon="5.93524">
        <ele>387</ele>
        <time>2022-02-13T14:30:10Z</time>
      </trkpt>
      <trkpt lat="43.26443" lon="5.93535">
        <ele>389</ele>
        <time>2022-02-13T14:30:12Z</time>
      </trkpt>
      <trkpt lat="43.2644" lon="5.93523">
        <ele>390</ele>
        <time>2022-02-13T14:30:14Z</time>
      </trkpt>
      <trkpt lat="43.26433" lon="5.93515">
        <ele>392</ele>
        <time>2022-02-13T14:30:16Z</time>
      </trkpt>
      <trkpt lat="43.26423" lon="5.93521">
        <ele>395</ele>
        <time>2022-02-13T14:30:19Z</time>
      </trkpt>
      <trkpt lat="43.26418" lon="5.93532">
        <ele>397</ele>
        <time>2022-02-13T14:30:21Z</time>
      </trkpt>
      <trkpt lat="43.264" lon="5.93525">
        <ele>397</ele>
        <time>2022-02-13T14:30:25Z</time>
      </trkpt>
      <trkpt lat="43.26389" lon="5.93537">
        <ele>397</ele>
        <time>2022-02-13T14:30:29Z</time>
      </trkpt>
      <trkpt lat="43.26359" lon="5.93549">
        <ele>398</ele>
        <time>2022-02-13T14:30:36Z</time>
      </trkpt>
      <trkpt lat="43.26349" lon="5.93566">
        <ele>399</ele>
        <time>2022-02-13T14:30:40Z</time>
      </trkpt>
      <trkpt lat="43.26339" lon="5.93644">
        <ele>404</ele>
        <time>2022-02-13T14:30:53Z</time>
      </trkpt>
      <trkpt lat="43.26329" lon="5.9369">
        <ele>407</ele>
        <time>2022-02-13T14:31:01Z</time>
      </trkpt>
      <trkpt lat="43.26291" lon="5.93786">
        <ele>414</ele>
        <time>2022-02-13T14:31:20Z</time>
      </trkpt>
      <trkpt lat="43.26247" lon="5.93763">
        <ele>418</ele>
        <time>2022-02-13T14:31:31Z</time>
      </trkpt>
      <trkpt lat="43.26214" lon="5.93734">
        <ele>420</ele>
        <time>2022-02-13T14:31:40Z</time>
      </trkpt>
      <trkpt lat="43.26203" lon="5.93698">
        <ele>414</ele>
        <time>2022-02-13T14:31:47Z</time>
      </trkpt>
      <trkpt lat="43.26182" lon="5.93661">
        <ele>410</ele>
        <time>2022-02-13T14:31:55Z</time>
      </trkpt>
      <trkpt lat="43.26162" lon="5.93657">
        <ele>412</ele>
        <time>2022-02-13T14:31:59Z</time>
      </trkpt>
      <trkpt lat="43.26149" lon="5.9365">
        <ele>414</ele>
        <time>2022-02-13T14:32:03Z</time>
      </trkpt>
      <trkpt lat="43.26135" lon="5.9363">
        <ele>412</ele>
        <time>2022-02-13T14:32:07Z</time>
      </trkpt>
      <trkpt lat="43.26117" lon="5.93611">
        <ele>411</ele>
        <time>2022-02-13T14:32:13Z</time>
      </trkpt>
      <trkpt lat="43.26062" lon="5.93561">
        <ele>408</ele>
        <time>2022-02-13T14:32:28Z</time>
      </trkpt>
      <trkpt lat="43.26037" lon="5.93534">
        <ele>405</ele>
        <time>2022-02-13T14:32:35Z</time>
      </trkpt>
      <trkpt lat="43.26021" lon="5.93528">
        <ele>405</ele>
        <time>2022-02-13T14:32:39Z</time>
      </trkpt>
      <trkpt lat="43.25964" lon="5.93556">
        <ele>415</ele>
        <time>2022-02-13T14:32:53Z</time>
      </trkpt>
      <trkpt lat="43.25946" lon="5.93569">
        <ele>418</ele>
        <time>2022-02-13T14:32:58Z</time>
      </trkpt>
      <trkpt lat="43.25935" lon="5.93566">
        <ele>418</ele>
        <time>2022-02-13T14:33:01Z</time>
      </trkpt>
      <trkpt lat="43.25921" lon="5.93558">
        <ele>417</ele>
        <time>2022-02-13T14:33:04Z</time>
      </trkpt>
      <trkpt lat="43.2591" lon="5.93526">
        <ele>413</ele>
        <time>2022-02-13T14:33:10Z</time>
      </trkpt>
      <trkpt lat="43.25907" lon="5.9349">
        <ele>409</ele>
        <time>2022-02-13T14:33:16Z</time>
      </trkpt>
      <trkpt lat="43.25874" lon="5.93496">
        <ele>414</ele>
        <time>2022-02-13T14:33:24Z</time>
      </trkpt>
      <trkpt lat="43.25848" lon="5.93481">
        <ele>417</ele>
        <time>2022-02-13T14:33:31Z</time>
      </trkpt>
      <trkpt lat="43.25853" lon="5.9343">
        <ele>410</ele>
        <time>2022-02-13T14:33:40Z</time>
      </trkpt>
      <trkpt lat="43.25848" lon="5.93376">
        <ele>405</ele>
        <time>2022-02-13T14:33:49Z</time>
      </trkpt>
      <trkpt lat="43.25842" lon="5.93362">
        <ele>404</ele>
        <time>2022-02-13T14:33:52Z</time>
      </trkpt>
      <trkpt lat="43.25828" lon="5.9336">
        <ele>405</ele>
        <time>2022-02-13T14:33:55Z</time>
      </trkpt>
      <trkpt lat="43.25802" lon="5.93377">
        <ele>409</ele>
        <time>2022-02-13T14:34:02Z</time>
      </trkpt>
      <trkpt lat="43.25791" lon="5.93373">
        <ele>410</ele>
        <time>2022-02-13T14:34:04Z</time>
      </trkpt>
      <trkpt lat="43.25798" lon="5.93338">
        <ele>405</ele>
        <time>2022-02-13T14:34:10Z</time>
      </trkpt>
      <trkpt lat="43.25789" lon="5.93324">
        <ele>404</ele>
        <time>2022-02-13T14:34:14Z</time>
      </trkpt>
      <trkpt lat="43.25776" lon="5.93313">
        <ele>404</ele>
        <time>2022-02-13T14:34:17Z</time>
      </trkpt>
      <trkpt lat="43.25739" lon="5.93291">
        <ele>403</ele>
        <time>2022-02-13T14:34:27Z</time>
      </trkpt>
      <trkpt lat="43.25714" lon="5.93282">
        <ele>402</ele>
        <time>2022-02-13T14:34:33Z</time>
      </trkpt>
      <trkpt lat="43.25684" lon="5.93278">
        <ele>402</ele>
        <time>2022-02-13T14:34:40Z</time>
      </trkpt>
      <trkpt lat="43.25619" lon="5.93279">
        <ele>403</ele>
        <time>2022-02-13T14:34:55Z</time>
      </trkpt>
      <trkpt lat="43.25591" lon="5.93264">
        <ele>400</ele>
        <time>2022-02-13T14:35:02Z</time>
      </trkpt>
      <trkpt lat="43.25574" lon="5.93252">
        <ele>398</ele>
        <time>2022-02-13T14:35:06Z</time>
      </trkpt>
      <trkpt lat="43.25558" lon="5.93235">
        <ele>397</ele>
        <time>2022-02-13T14:35:11Z</time>
      </trkpt>
      <trkpt lat="43.25538" lon="5.93223">
        <ele>396</ele>
        <time>2022-02-13T14:35:16Z</time>
      </trkpt>
      <trkpt lat="43.25515" lon="5.93217">
        <ele>395</ele>
        <time>2022-02-13T14:35:22Z</time>
      </trkpt>
      <trkpt lat="43.25498" lon="5.93209">
        <ele>394</ele>
        <time>2022-02-13T14:35:26Z</time>
      </trkpt>
      <trkpt lat="43.25471" lon="5.93212">
        <ele>396</ele>
        <time>2022-02-13T14:35:32Z</time>
      </trkpt>
      <trkpt lat="43.25428" lon="5.93207">
        <ele>397</ele>
        <time>2022-02-13T14:35:42Z</time>
      </trkpt>
      <trkpt lat="43.25372" lon="5.93184">
        <ele>400</ele>
        <time>2022-02-13T14:35:56Z</time>
      </trkpt>
      <trkpt lat="43.2536" lon="5.93175">
        <ele>400</ele>
        <time>2022-02-13T14:35:59Z</time>
      </trkpt>
      <trkpt lat="43.25323" lon="5.93172">
        <ele>402</ele>
        <time>2022-02-13T14:36:08Z</time>
      </trkpt>
      <trkpt lat="43.25325" lon="5.93177">
        <ele>402</ele>
        <time>2022-02-13T14:36:09Z</time>
      </trkpt>
      <trkpt lat="43.2531" lon="5.93185">
        <ele>403</ele>
        <time>2022-02-13T14:36:12Z</time>
      </trkpt>
      <trkpt lat="43.25302" lon="5.93196">
        <ele>404</ele>
        <time>2022-02-13T14:36:15Z</time>
      </trkpt>
      <trkpt lat="43.25282" lon="5.932">
        <ele>405</ele>
        <time>2022-02-13T14:36:20Z</time>
      </trkpt>
      <trkpt lat="43.25271" lon="5.93196">
        <ele>406</ele>
        <time>2022-02-13T14:36:22Z</time>
      </trkpt>
      <trkpt lat="43.25259" lon="5.93198">
        <ele>406</ele>
        <time>2022-02-13T14:36:25Z</time>
      </trkpt>
      <trkpt lat="43.25214" lon="5.93218">
        <ele>410</ele>
        <time>2022-02-13T14:36:36Z</time>
      </trkpt>
      <trkpt lat="43.25192" lon="5.93236">
        <ele>411</ele>
        <time>2022-02-13T14:36:42Z</time>
      </trkpt>
      <trkpt lat="43.25176" lon="5.93221">
        <ele>412</ele>
        <time>2022-02-13T14:36:47Z</time>
      </trkpt>
      <trkpt lat="43.25153" lon="5.93209">
        <ele>413</ele>
        <time>2022-02-13T14:36:53Z</time>
      </trkpt>
      <trkpt lat="43.25125" lon="5.9321">
        <ele>415</ele>
        <time>2022-02-13T14:36:59Z</time>
      </trkpt>
      <trkpt lat="43.2511" lon="5.93213">
        <ele>415</ele>
        <time>2022-02-13T14:37:03Z</time>
      </trkpt>
      <trkpt lat="43.25086" lon="5.93233">
        <ele>416</ele>
        <time>2022-02-13T14:37:09Z</time>
      </trkpt>
      <trkpt lat="43.25062" lon="5.93264">
        <ele>420</ele>
        <time>2022-02-13T14:37:17Z</time>
      </trkpt>
      <trkpt lat="43.25048" lon="5.93273">
        <ele>421</ele>
        <time>2022-02-13T14:37:21Z</time>
      </trkpt>
      <trkpt lat="43.25014" lon="5.93302">
        <ele>424</ele>
        <time>2022-02-13T14:37:30Z</time>
      </trkpt>
      <trkpt lat="43.24989" lon="5.93344">
        <ele>427</ele>
        <time>2022-02-13T14:37:39Z</time>
      </trkpt>
      <trkpt lat="43.24986" lon="5.93357">
        <ele>428</ele>
        <time>2022-02-13T14:37:41Z</time>
      </trkpt>
      <trkpt lat="43.24963" lon="5.93388">
        <ele>430</ele>
        <time>2022-02-13T14:37:49Z</time>
      </trkpt>
      <trkpt lat="43.24954" lon="5.93388">
        <ele>430</ele>
        <time>2022-02-13T14:37:51Z</time>
      </trkpt>
      <trkpt lat="43.24944" lon="5.93384">
        <ele>430</ele>
        <time>2022-02-13T14:37:54Z</time>
      </trkpt>
      <trkpt lat="43.24894" lon="5.93375">
        <ele>432</ele>
        <time>2022-02-13T14:38:05Z</time>
      </trkpt>
      <trkpt lat="43.24877" lon="5.93345">
        <ele>432</ele>
        <time>2022-02-13T14:38:12Z</time>
      </trkpt>
      <trkpt lat="43.24868" lon="5.93338">
        <ele>433</ele>
        <time>2022-02-13T14:38:14Z</time>
      </trkpt>
      <trkpt lat="43.24858" lon="5.93337">
        <ele>433</ele>
        <time>2022-02-13T14:38:16Z</time>
      </trkpt>
      <trkpt lat="43.24844" lon="5.93339">
        <ele>435</ele>
        <time>2022-02-13T14:38:20Z</time>
      </trkpt>
      <trkpt lat="43.24834" lon="5.93352">
        <ele>436</ele>
        <time>2022-02-13T14:38:23Z</time>
      </trkpt>
      <trkpt lat="43.24821" lon="5.93393">
        <ele>440</ele>
        <time>2022-02-13T14:38:31Z</time>
      </trkpt>
      <trkpt lat="43.24812" lon="5.93401">
        <ele>442</ele>
        <time>2022-02-13T14:38:33Z</time>
      </trkpt>
      <trkpt lat="43.24807" lon="5.93401">
        <ele>442</ele>
        <time>2022-02-13T14:38:34Z</time>
      </trkpt>
      <trkpt lat="43.24802" lon="5.93392">
        <ele>443</ele>
        <time>2022-02-13T14:38:36Z</time>
      </trkpt>
      <trkpt lat="43.24798" lon="5.93395">
        <ele>444</ele>
        <time>2022-02-13T14:38:37Z</time>
      </trkpt>
      <trkpt lat="43.24784" lon="5.9338">
        <ele>445</ele>
        <time>2022-02-13T14:38:41Z</time>
      </trkpt>
      <trkpt lat="43.24767" lon="5.93356">
        <ele>449</ele>
        <time>2022-02-13T14:38:47Z</time>
      </trkpt>
      <trkpt lat="43.2477" lon="5.93341">
        <ele>449</ele>
        <time>2022-02-13T14:38:50Z</time>
      </trkpt>
      <trkpt lat="43.2478" lon="5.93323">
        <ele>447</ele>
        <time>2022-02-13T14:38:54Z</time>
      </trkpt>
      <trkpt lat="43.24794" lon="5.93305">
        <ele>444</ele>
        <time>2022-02-13T14:38:58Z</time>
      </trkpt>
      <trkpt lat="43.24803" lon="5.932">
        <ele>444</ele>
        <time>2022-02-13T14:39:16Z</time>
      </trkpt>
      <trkpt lat="43.24801" lon="5.93142">
        <ele>444</ele>
        <time>2022-02-13T14:39:26Z</time>
      </trkpt>
      <trkpt lat="43.24788" lon="5.93149">
        <ele>447</ele>
        <time>2022-02-13T14:39:29Z</time>
      </trkpt>
      <trkpt lat="43.24775" lon="5.93218">
        <ele>449</ele>
        <time>2022-02-13T14:39:41Z</time>
      </trkpt>
      <trkpt lat="43.24762" lon="5.93233">
        <ele>452</ele>
        <time>2022-02-13T14:39:45Z</time>
      </trkpt>
      <trkpt lat="43.24741" lon="5.93265">
        <ele>456</ele>
        <time>2022-02-13T14:39:53Z</time>
      </trkpt>
      <trkpt lat="43.24748" lon="5.93294">
        <ele>454</ele>
        <time>2022-02-13T14:39:58Z</time>
      </trkpt>
      <trkpt lat="43.24711" lon="5.93413">
        <ele>466</ele>
        <time>2022-02-13T14:40:20Z</time>
      </trkpt>
      <trkpt lat="43.24693" lon="5.93448">
        <ele>470</ele>
        <time>2022-02-13T14:40:27Z</time>
      </trkpt>
      <trkpt lat="43.24652" lon="5.93541">
        <ele>474</ele>
        <time>2022-02-13T14:40:46Z</time>
      </trkpt>
      <trkpt lat="43.24632" lon="5.93599">
        <ele>478</ele>
        <time>2022-02-13T14:40:57Z</time>
      </trkpt>
      <trkpt lat="43.24614" lon="5.93639">
        <ele>483</ele>
        <time>2022-02-13T14:41:05Z</time>
      </trkpt>
      <trkpt lat="43.24609" lon="5.93693">
        <ele>482</ele>
        <time>2022-02-13T14:41:14Z</time>
      </trkpt>
      <trkpt lat="43.24605" lon="5.93713">
        <ele>482</ele>
        <time>2022-02-13T14:41:17Z</time>
      </trkpt>
      <trkpt lat="43.2459" lon="5.93756">
        <ele>484</ele>
        <time>2022-02-13T14:41:25Z</time>
      </trkpt>
      <trkpt lat="43.24585" lon="5.9383">
        <ele>483</ele>
        <time>2022-02-13T14:41:38Z</time>
      </trkpt>
      <trkpt lat="43.24586" lon="5.93878">
        <ele>484</ele>
        <time>2022-02-13T14:41:46Z</time>
      </trkpt>
      <trkpt lat="43.24582" lon="5.93924">
        <ele>487</ele>
        <time>2022-02-13T14:41:54Z</time>
      </trkpt>
      <trkpt lat="43.24585" lon="5.93948">
        <ele>488</ele>
        <time>2022-02-13T14:41:58Z</time>
      </trkpt>
      <trkpt lat="43.24584" lon="5.93978">
        <ele>492</ele>
        <time>2022-02-13T14:42:03Z</time>
      </trkpt>
      <trkpt lat="43.24591" lon="5.93994">
        <ele>493</ele>
        <time>2022-02-13T14:42:07Z</time>
      </trkpt>
      <trkpt lat="43.24623" lon="5.94012">
        <ele>495</ele>
        <time>2022-02-13T14:42:15Z</time>
      </trkpt>
      <trkpt lat="43.24637" lon="5.94028">
        <ele>496</ele>
        <time>2022-02-13T14:42:19Z</time>
      </trkpt>
      <trkpt lat="43.24668" lon="5.94052">
        <ele>496</ele>
        <time>2022-02-13T14:42:27Z</time>
      </trkpt>
      <trkpt lat="43.24675" lon="5.94067">
        <ele>499</ele>
        <time>2022-02-13T14:42:30Z</time>
      </trkpt>
      <trkpt lat="43.24679" lon="5.94121">
        <ele>506</ele>
        <time>2022-02-13T14:42:39Z</time>
      </trkpt>
      <trkpt lat="43.24693" lon="5.94112">
        <ele>506</ele>
        <time>2022-02-13T14:42:43Z</time>
      </trkpt>
      <trkpt lat="43.24719" lon="5.9407">
        <ele>508</ele>
        <time>2022-02-13T14:42:52Z</time>
      </trkpt>
      <trkpt lat="43.24711" lon="5.94026">
        <ele>507</ele>
        <time>2022-02-13T14:43:00Z</time>
      </trkpt>
      <trkpt lat="43.24694" lon="5.93975">
        <ele>501</ele>
        <time>2022-02-13T14:43:10Z</time>
      </trkpt>
      <trkpt lat="43.24714" lon="5.94012">
        <ele>508</ele>
        <time>2022-02-13T14:43:18Z</time>
      </trkpt>
      <trkpt lat="43.24746" lon="5.94098">
        <ele>514</ele>
        <time>2022-02-13T14:43:34Z</time>
      </trkpt>
      <trkpt lat="43.2475" lon="5.9415">
        <ele>516</ele>
        <time>2022-02-13T14:43:43Z</time>
      </trkpt>
      <trkpt lat="43.24748" lon="5.94192">
        <ele>518</ele>
        <time>2022-02-13T14:43:50Z</time>
      </trkpt>
      <trkpt lat="43.24805" lon="5.94224">
        <ele>527</ele>
        <time>2022-02-13T14:44:04Z</time>
      </trkpt>
      <trkpt lat="43.24825" lon="5.94227">
        <ele>529</ele>
        <time>2022-02-13T14:44:09Z</time>
      </trkpt>
      <trkpt lat="43.24846" lon="5.94222">
        <ele>531</ele>
        <time>2022-02-13T14:44:14Z</time>
      </trkpt>
      <trkpt lat="43.24861" lon="5.94232">
        <ele>534</ele>
        <time>2022-02-13T14:44:18Z</time>
      </trkpt>
      <trkpt lat="43.24862" lon="5.94243">
        <ele>536</ele>
        <time>2022-02-13T14:44:20Z</time>
      </trkpt>
      <trkpt lat="43.24854" lon="5.94268">
        <ele>537</ele>
        <time>2022-02-13T14:44:24Z</time>
      </trkpt>
      <trkpt lat="43.24846" lon="5.94282">
        <ele>538</ele>
        <time>2022-02-13T14:44:28Z</time>
      </trkpt>
      <trkpt lat="43.24819" lon="5.94297">
        <ele>537</ele>
        <time>2022-02-13T14:44:34Z</time>
      </trkpt>
      <trkpt lat="43.24784" lon="5.94306">
        <ele>534</ele>
        <time>2022-02-13T14:44:43Z</time>
      </trkpt>
      <trkpt lat="43.24772" lon="5.94312">
        <ele>534</ele>
        <time>2022-02-13T14:44:46Z</time>
      </trkpt>
      <trkpt lat="43.24756" lon="5.94338">
        <ele>536</ele>
        <time>2022-02-13T14:44:51Z</time>
      </trkpt>
      <trkpt lat="43.24746" lon="5.94401">
        <ele>545</ele>
        <time>2022-02-13T14:45:02Z</time>
      </trkpt>
      <trkpt lat="43.24738" lon="5.94411">
        <ele>547</ele>
        <time>2022-02-13T14:45:05Z</time>
      </trkpt>
      <trkpt lat="43.24728" lon="5.94413">
        <ele>547</ele>
        <time>2022-02-13T14:45:07Z</time>
      </trkpt>
      <trkpt lat="43.2472" lon="5.94405">
        <ele>545</ele>
        <time>2022-02-13T14:45:10Z</time>
      </trkpt>
      <trkpt lat="43.2471" lon="5.94404">
        <ele>545</ele>
        <time>2022-02-13T14:45:12Z</time>
      </trkpt>
      <trkpt lat="43.24684" lon="5.94407">
        <ele>544</ele>
        <time>2022-02-13T14:45:18Z</time>
      </trkpt>
      <trkpt lat="43.24669" lon="5.94414">
        <ele>545</ele>
        <time>2022-02-13T14:45:22Z</time>
      </trkpt>
      <trkpt lat="43.24642" lon="5.94409">
        <ele>549</ele>
        <time>2022-02-13T14:45:28Z</time>
      </trkpt>
      <trkpt lat="43.24634" lon="5.94424">
        <ele>552</ele>
        <time>2022-02-13T14:45:31Z</time>
      </trkpt>
      <trkpt lat="43.24629" lon="5.94445">
        <ele>554</ele>
        <time>2022-02-13T14:45:35Z</time>
      </trkpt>
      <trkpt lat="43.24626" lon="5.94526">
        <ele>558</ele>
        <time>2022-02-13T14:45:49Z</time>
      </trkpt>
      <trkpt lat="43.24584" lon="5.94614">
        <ele>556</ele>
        <time>2022-02-13T14:46:07Z</time>
      </trkpt>
      <trkpt lat="43.24573" lon="5.94623">
        <ele>556</ele>
        <time>2022-02-13T14:46:10Z</time>
      </trkpt>
      <trkpt lat="43.24561" lon="5.94618">
        <ele>558</ele>
        <time>2022-02-13T14:46:13Z</time>
      </trkpt>
      <trkpt lat="43.24525" lon="5.94642">
        <ele>558</ele>
        <time>2022-02-13T14:46:22Z</time>
      </trkpt>
      <trkpt lat="43.2451" lon="5.94664">
        <ele>557</ele>
        <time>2022-02-13T14:46:27Z</time>
      </trkpt>
      <trkpt lat="43.24494" lon="5.94696">
        <ele>557</ele>
        <time>2022-02-13T14:46:34Z</time>
      </trkpt>
      <trkpt lat="43.24483" lon="5.94705">
        <ele>558</ele>
        <time>2022-02-13T14:46:37Z</time>
      </trkpt>
      <trkpt lat="43.24468" lon="5.94706">
        <ele>559</ele>
        <time>2022-02-13T14:46:40Z</time>
      </trkpt>
      <trkpt lat="43.24437" lon="5.94688">
        <ele>563</ele>
        <time>2022-02-13T14:46:48Z</time>
      </trkpt>
      <trkpt lat="43.24405" lon="5.94677">
        <ele>567</ele>
        <time>2022-02-13T14:46:56Z</time>
      </trkpt>
      <trkpt lat="43.24369" lon="5.94678">
        <ele>574</ele>
        <time>2022-02-13T14:47:04Z</time>
      </trkpt>
      <trkpt lat="43.24357" lon="5.94673">
        <ele>577</ele>
        <time>2022-02-13T14:47:07Z</time>
      </trkpt>
      <trkpt lat="43.24351" lon="5.94659">
        <ele>579</ele>
        <time>2022-02-13T14:47:10Z</time>
      </trkpt>
      <trkpt lat="43.24349" lon="5.9463">
        <ele>582</ele>
        <time>2022-02-13T14:47:15Z</time>
      </trkpt>
      <trkpt lat="43.24352" lon="5.94598">
        <ele>584</ele>
        <time>2022-02-13T14:47:20Z</time>
      </trkpt>
      <trkpt lat="43.24364" lon="5.94523">
        <ele>590</ele>
        <time>2022-02-13T14:47:33Z</time>
      </trkpt>
      <trkpt lat="43.24376" lon="5.94413">
        <ele>602</ele>
        <time>2022-02-13T14:47:52Z</time>
      </trkpt>
      <trkpt lat="43.2438" lon="5.94396">
        <ele>602</ele>
        <time>2022-02-13T14:47:55Z</time>
      </trkpt>
      <trkpt lat="43.2438" lon="5.94347">
        <ele>603</ele>
        <time>2022-02-13T14:48:04Z</time>
      </trkpt>
      <trkpt lat="43.2437" lon="5.943">
        <ele>604</ele>
        <time>2022-02-13T14:48:12Z</time>
      </trkpt>
      <trkpt lat="43.24371" lon="5.94244">
        <ele>603</ele>
        <time>2022-02-13T14:48:21Z</time>
      </trkpt>
      <trkpt lat="43.24368" lon="5.94228">
        <ele>602</ele>
        <time>2022-02-13T14:48:24Z</time>
      </trkpt>
      <trkpt lat="43.24317" lon="5.94141">
        <ele>609</ele>
        <time>2022-02-13T14:48:43Z</time>
      </trkpt>
      <trkpt lat="43.24308" lon="5.94119">
        <ele>610</ele>
        <time>2022-02-13T14:48:48Z</time>
      </trkpt>
      <trkpt lat="43.24248" lon="5.94016">
        <ele>611</ele>
        <time>2022-02-13T14:49:10Z</time>
      </trkpt>
      <trkpt lat="43.24231" lon="5.9397">
        <ele>609</ele>
        <time>2022-02-13T14:49:19Z</time>
      </trkpt>
      <trkpt lat="43.24183" lon="5.93901">
        <ele>612</ele>
        <time>2022-02-13T14:49:35Z</time>
      </trkpt>
      <trkpt lat="43.24163" lon="5.93857">
        <ele>613</ele>
        <time>2022-02-13T14:49:44Z</time>
      </trkpt>
      <trkpt lat="43.24151" lon="5.9384">
        <ele>613</ele>
        <time>2022-02-13T14:49:48Z</time>
      </trkpt>
      <trkpt lat="43.24138" lon="5.93837">
        <ele>615</ele>
        <time>2022-02-13T14:49:51Z</time>
      </trkpt>
      <trkpt lat="43.24121" lon="5.93827">
        <ele>618</ele>
        <time>2022-02-13T14:49:55Z</time>
      </trkpt>
      <trkpt lat="43.24089" lon="5.9383">
        <ele>623</ele>
        <time>2022-02-13T14:50:03Z</time>
      </trkpt>
      <trkpt lat="43.24087" lon="5.93825">
        <ele>624</ele>
        <time>2022-02-13T14:50:04Z</time>
      </trkpt>
      <trkpt lat="43.24076" lon="5.93818">
        <ele>625</ele>
        <time>2022-02-13T14:50:07Z</time>
      </trkpt>
      <trkpt lat="43.24078" lon="5.93803">
        <ele>626</ele>
        <time>2022-02-13T14:50:09Z</time>
      </trkpt>
      <trkpt lat="43.24094" lon="5.93759">
        <ele>625</ele>
        <time>2022-02-13T14:50:18Z</time>
      </trkpt>
      <trkpt lat="43.24092" lon="5.93753">
        <ele>626</ele>
        <time>2022-02-13T14:50:19Z</time>
      </trkpt>
      <trkpt lat="43.24082" lon="5.93765">
        <ele>627</ele>
        <time>2022-02-13T14:50:22Z</time>
      </trkpt>
      <trkpt lat="43.24035" lon="5.93804">
        <ele>629</ele>
        <time>2022-02-13T14:50:35Z</time>
      </trkpt>
      <trkpt lat="43.24019" lon="5.93813">
        <ele>631</ele>
        <time>2022-02-13T14:50:39Z</time>
      </trkpt>
      <trkpt lat="43.24006" lon="5.9381">
        <ele>632</ele>
        <time>2022-02-13T14:50:42Z</time>
      </trkpt>
      <trkpt lat="43.23975" lon="5.93809">
        <ele>633</ele>
        <time>2022-02-13T14:50:49Z</time>
      </trkpt>
      <trkpt lat="43.23942" lon="5.93817">
        <ele>633</ele>
        <time>2022-02-13T14:50:57Z</time>
      </trkpt>
      <trkpt lat="43.23904" lon="5.93812">
        <ele>633</ele>
        <time>2022-02-13T14:51:06Z</time>
      </trkpt>
      <trkpt lat="43.23889" lon="5.93807">
        <ele>632</ele>
        <time>2022-02-13T14:51:09Z</time>
      </trkpt>
      <trkpt lat="43.23875" lon="5.93806">
        <ele>632</ele>
        <time>2022-02-13T14:51:13Z</time>
      </trkpt>
      <trkpt lat="43.2386" lon="5.93809">
        <ele>632</ele>
        <time>2022-02-13T14:51:16Z</time>
      </trkpt>
      <trkpt lat="43.23845" lon="5.93787">
        <ele>631</ele>
        <time>2022-02-13T14:51:21Z</time>
      </trkpt>
      <trkpt lat="43.23769" lon="5.93776">
        <ele>630</ele>
        <time>2022-02-13T14:51:39Z</time>
      </trkpt>
      <trkpt lat="43.23744" lon="5.93767">
        <ele>629</ele>
        <time>2022-02-13T14:51:45Z</time>
      </trkpt>
      <trkpt lat="43.23729" lon="5.93738">
        <ele>628</ele>
        <time>2022-02-13T14:51:51Z</time>
      </trkpt>
      <trkpt lat="43.23691" lon="5.93686">
        <ele>626</ele>
        <time>2022-02-13T14:52:04Z</time>
      </trkpt>
      <trkpt lat="43.23668" lon="5.93632">
        <ele>624</ele>
        <time>2022-02-13T14:52:14Z</time>
      </trkpt>
      <trkpt lat="43.23664" lon="5.9359">
        <ele>623</ele>
        <time>2022-02-13T14:52:22Z</time>
      </trkpt>
      <trkpt lat="43.2369" lon="5.93497">
        <ele>623</ele>
        <time>2022-02-13T14:52:38Z</time>
      </trkpt>
      <trkpt lat="43.23732" lon="5.93415">
        <ele>621</ele>
        <time>2022-02-13T14:52:56Z</time>
      </trkpt>
      <trkpt lat="43.23736" lon="5.93367">
        <ele>620</ele>
        <time>2022-02-13T14:53:04Z</time>
      </trkpt>
      <trkpt lat="43.23733" lon="5.9332">
        <ele>620</ele>
        <time>2022-02-13T14:53:12Z</time>
      </trkpt>
      <trkpt lat="43.23711" lon="5.93221">
        <ele>623</ele>
        <time>2022-02-13T14:53:29Z</time>
      </trkpt>
      <trkpt lat="43.23693" lon="5.93168">
        <ele>624</ele>
        <time>2022-02-13T14:53:39Z</time>
      </trkpt>
      <trkpt lat="43.2367" lon="5.9312">
        <ele>621</ele>
        <time>2022-02-13T14:53:49Z</time>
      </trkpt>
      <trkpt lat="43.23637" lon="5.93082">
        <ele>620</ele>
        <time>2022-02-13T14:53:59Z</time>
      </trkpt>
      <trkpt lat="43.2361" lon="5.93044">
        <ele>616</ele>
        <time>2022-02-13T14:54:08Z</time>
      </trkpt>
      <trkpt lat="43.23547" lon="5.92968">
        <ele>607</ele>
        <time>2022-02-13T14:54:28Z</time>
      </trkpt>
      <trkpt lat="43.23506" lon="5.92935">
        <ele>606</ele>
        <time>2022-02-13T14:54:39Z</time>
      </trkpt>
      <trkpt lat="43.2346" lon="5.9291">
        <ele>604</ele>
        <time>2022-02-13T14:54:50Z</time>
      </trkpt>
      <trkpt lat="43.23468" lon="5.92876">
        <ele>602</ele>
        <time>2022-02-13T14:54:57Z</time>
      </trkpt>
      <trkpt lat="43.23498" lon="5.92842">
        <ele>599</ele>
        <time>2022-02-13T14:55:06Z</time>
      </trkpt>
      <trkpt lat="43.23522" lon="5.92795">
        <ele>600</ele>
        <time>2022-02-13T14:55:15Z</time>
      </trkpt>
      <trkpt lat="43.23545" lon="5.92737">
        <ele>602</ele>
        <time>2022-02-13T14:55:27Z</time>
      </trkpt>
      <trkpt lat="43.23569" lon="5.92701">
        <ele>605</ele>
        <time>2022-02-13T14:55:35Z</time>
      </trkpt>
      <trkpt lat="43.23573" lon="5.92665">
        <ele>607</ele>
        <time>2022-02-13T14:55:41Z</time>
      </trkpt>
      <trkpt lat="43.23581" lon="5.92625">
        <ele>606</ele>
        <time>2022-02-13T14:55:48Z</time>
      </trkpt>
      <trkpt lat="43.23678" lon="5.92524">
        <ele>615</ele>
        <time>2022-02-13T14:56:17Z</time>
      </trkpt>
      <trkpt lat="43.23719" lon="5.92488">
        <ele>618</ele>
        <time>2022-02-13T14:56:28Z</time>
      </trkpt>
      <trkpt lat="43.23785" lon="5.92389">
        <ele>626</ele>
        <time>2022-02-13T14:56:51Z</time>
      </trkpt>
      <trkpt lat="43.23839" lon="5.92365">
        <ele>630</ele>
        <time>2022-02-13T14:57:04Z</time>
      </trkpt>
      <trkpt lat="43.23902" lon="5.92312">
        <ele>624</ele>
        <time>2022-02-13T14:57:21Z</time>
      </trkpt>
      <trkpt lat="43.23886" lon="5.92362">
        <ele>624</ele>
        <time>2022-02-13T14:57:31Z</time>
      </trkpt>
      <trkpt lat="43.239" lon="5.92388">
        <ele>623</ele>
        <time>2022-02-13T14:57:36Z</time>
      </trkpt>
      <trkpt lat="43.23995" lon="5.92381">
        <ele>617</ele>
        <time>2022-02-13T14:57:58Z</time>
      </trkpt>
      <trkpt lat="43.24069" lon="5.92387">
        <ele>613</ele>
        <time>2022-02-13T14:58:16Z</time>
      </trkpt>
      <trkpt lat="43.24204" lon="5.92373">
        <ele>611</ele>
        <time>2022-02-13T14:58:47Z</time>
      </trkpt>
      <trkpt lat="43.24265" lon="5.92341">
        <ele>609</ele>
        <time>2022-02-13T14:59:03Z</time>
      </trkpt>
      <trkpt lat="43.24301" lon="5.92288">
        <ele>619</ele>
        <time>2022-02-13T14:59:15Z</time>
      </trkpt>
      <trkpt lat="43.24469" lon="5.92202">
        <ele>637</ele>
        <time>2022-02-13T14:59:57Z</time>
      </trkpt>
      <trkpt lat="43.24636" lon="5.92131">
        <ele>641</ele>
        <time>2022-02-13T15:00:38Z</time>
      </trkpt>
      <trkpt lat="43.24732" lon="5.91986">
        <ele>651</ele>
        <time>2022-02-13T15:01:11Z</time>
      </trkpt>
      <trkpt lat="43.24806" lon="5.91913">
        <ele>653</ele>
        <time>2022-02-13T15:01:32Z</time>
      </trkpt>
      <trkpt lat="43.24952" lon="5.91732">
        <ele>663</ele>
        <time>2022-02-13T15:02:18Z</time>
      </trkpt>
      <trkpt lat="43.24974" lon="5.91665">
        <ele>671</ele>
        <time>2022-02-13T15:02:31Z</time>
      </trkpt>
      <trkpt lat="43.24995" lon="5.91641">
        <ele>670</ele>
        <time>2022-02-13T15:02:37Z</time>
      </trkpt>
      <trkpt lat="43.25017" lon="5.91637">
        <ele>669</ele>
        <time>2022-02-13T15:02:42Z</time>
      </trkpt>
      <trkpt lat="43.25049" lon="5.91665">
        <ele>663</ele>
        <time>2022-02-13T15:02:51Z</time>
      </trkpt>
      <trkpt lat="43.25081" lon="5.91665">
        <ele>663</ele>
        <time>2022-02-13T15:02:58Z</time>
      </trkpt>
      <trkpt lat="43.251" lon="5.91696">
        <ele>658</ele>
        <time>2022-02-13T15:03:05Z</time>
      </trkpt>
      <trkpt lat="43.25115" lon="5.91681">
        <ele>661</ele>
        <time>2022-02-13T15:03:10Z</time>
      </trkpt>
      <trkpt lat="43.25124" lon="5.91656">
        <ele>665</ele>
        <time>2022-02-13T15:03:14Z</time>
      </trkpt>
      <trkpt lat="43.25166" lon="5.91696">
        <ele>661</ele>
        <time>2022-02-13T15:03:26Z</time>
      </trkpt>
      <trkpt lat="43.2517" lon="5.91589">
        <ele>675</ele>
        <time>2022-02-13T15:03:45Z</time>
      </trkpt>
      <trkpt lat="43.25137" lon="5.91429">
        <ele>695</ele>
        <time>2022-02-13T15:04:13Z</time>
      </trkpt>
      <trkpt lat="43.25125" lon="5.91315">
        <ele>711</ele>
        <time>2022-02-13T15:04:32Z</time>
      </trkpt>
      <trkpt lat="43.25136" lon="5.91192">
        <ele>725</ele>
        <time>2022-02-13T15:04:54Z</time>
      </trkpt>
      <trkpt lat="43.25139" lon="5.9111">
        <ele>735</ele>
        <time>2022-02-13T15:05:08Z</time>
      </trkpt>
      <trkpt lat="43.25211" lon="5.91004">
        <ele>732</ele>
        <time>2022-02-13T15:05:32Z</time>
      </trkpt>
      <trkpt lat="43.25252" lon="5.90892">
        <ele>726</ele>
        <time>2022-02-13T15:05:54Z</time>
      </trkpt>
      <trkpt lat="43.25271" lon="5.90808">
        <ele>725</ele>
        <time>2022-02-13T15:06:08Z</time>
      </trkpt>
      <trkpt lat="43.25277" lon="5.90745">
        <ele>725</ele>
        <time>2022-02-13T15:06:19Z</time>
      </trkpt>
      <trkpt lat="43.25281" lon="5.90643">
        <ele>725</ele>
        <time>2022-02-13T15:06:37Z</time>
      </trkpt>
      <trkpt lat="43.25295" lon="5.9059">
        <ele>724</ele>
        <time>2022-02-13T15:06:46Z</time>
      </trkpt>
      <trkpt lat="43.25315" lon="5.90468">
        <ele>726</ele>
        <time>2022-02-13T15:07:08Z</time>
      </trkpt>
      <trkpt lat="43.25323" lon="5.90433">
        <ele>725</ele>
        <time>2022-02-13T15:07:14Z</time>
      </trkpt>
      <trkpt lat="43.25342" lon="5.9031">
        <ele>726</ele>
        <time>2022-02-13T15:07:35Z</time>
      </trkpt>
      <trkpt lat="43.25363" lon="5.90233">
        <ele>725</ele>
        <time>2022-02-13T15:07:49Z</time>
      </trkpt>
      <trkpt lat="43.25363" lon="5.902">
        <ele>725</ele>
        <time>2022-02-13T15:07:55Z</time>
      </trkpt>
      <trkpt lat="43.25383" lon="5.90139">
        <ele>723</ele>
        <time>2022-02-13T15:08:06Z</time>
      </trkpt>
      <trkpt lat="43.25432" lon="5.90008">
        <ele>723</ele>
        <time>2022-02-13T15:08:31Z</time>
      </trkpt>
      <trkpt lat="43.25476" lon="5.89909">
        <ele>719</ele>
        <time>2022-02-13T15:08:51Z</time>
      </trkpt>
      <trkpt lat="43.25499" lon="5.89839">
        <ele>715</ele>
        <time>2022-02-13T15:09:04Z</time>
      </trkpt>
      <trkpt lat="43.25501" lon="5.89774">
        <ele>714</ele>
        <time>2022-02-13T15:09:15Z</time>
      </trkpt>
      <trkpt lat="43.25499" lon="5.89732">
        <ele>715</ele>
        <time>2022-02-13T15:09:22Z</time>
      </trkpt>
      <trkpt lat="43.25575" lon="5.8954">
        <ele>701</ele>
        <time>2022-02-13T15:09:59Z</time>
      </trkpt>
      <trkpt lat="43.25594" lon="5.89439">
        <ele>698</ele>
        <time>2022-02-13T15:10:17Z</time>
      </trkpt>
      <trkpt lat="43.25612" lon="5.89361">
        <ele>696</ele>
        <time>2022-02-13T15:10:31Z</time>
      </trkpt>
      <trkpt lat="43.25632" lon="5.89311">
        <ele>695</ele>
        <time>2022-02-13T15:10:41Z</time>
      </trkpt>
      <trkpt lat="43.25639" lon="5.8927">
        <ele>694</ele>
        <time>2022-02-13T15:10:48Z</time>
      </trkpt>
      <trkpt lat="43.25664" lon="5.89188">
        <ele>694</ele>
        <time>2022-02-13T15:11:03Z</time>
      </trkpt>
      <trkpt lat="43.25676" lon="5.89136">
        <ele>696</ele>
        <time>2022-02-13T15:11:12Z</time>
      </trkpt>
      <trkpt lat="43.25714" lon="5.89032">
        <ele>697</ele>
        <time>2022-02-13T15:11:32Z</time>
      </trkpt>
      <trkpt lat="43.25736" lon="5.88992">
        <ele>693</ele>
        <time>2022-02-13T15:11:41Z</time>
      </trkpt>
      <trkpt lat="43.25756" lon="5.88922">
        <ele>691</ele>
        <time>2022-02-13T15:11:53Z</time>
      </trkpt>
      <trkpt lat="43.25784" lon="5.88881">
        <ele>689</ele>
        <time>2022-02-13T15:12:03Z</time>
      </trkpt>
      <trkpt lat="43.25798" lon="5.88843">
        <ele>688</ele>
        <time>2022-02-13T15:12:10Z</time>
      </trkpt>
      <trkpt lat="43.25849" lon="5.88737">
        <ele>683</ele>
        <time>2022-02-13T15:12:32Z</time>
      </trkpt>
      <trkpt lat="43.25873" lon="5.88675">
        <ele>682</ele>
        <time>2022-02-13T15:12:44Z</time>
      </trkpt>
      <trkpt lat="43.25889" lon="5.88625">
        <ele>681</ele>
        <time>2022-02-13T15:12:53Z</time>
      </trkpt>
      <trkpt lat="43.25937" lon="5.88525">
        <ele>680</ele>
        <time>2022-02-13T15:13:13Z</time>
      </trkpt>
      <trkpt lat="43.25994" lon="5.88384">
        <ele>681</ele>
        <time>2022-02-13T15:13:41Z</time>
      </trkpt>
      <trkpt lat="43.26023" lon="5.88317">
        <ele>682</ele>
        <time>2022-02-13T15:13:54Z</time>
      </trkpt>
      <trkpt lat="43.26044" lon="5.88277">
        <ele>684</ele>
        <time>2022-02-13T15:14:02Z</time>
      </trkpt>
      <trkpt lat="43.26089" lon="5.883">
        <ele>683</ele>
        <time>2022-02-13T15:14:14Z</time>
      </trkpt>
      <trkpt lat="43.26145" lon="5.88321">
        <ele>682</ele>
        <time>2022-02-13T15:14:27Z</time>
      </trkpt>
      <trkpt lat="43.26229" lon="5.88369">
        <ele>686</ele>
        <time>2022-02-13T15:14:48Z</time>
      </trkpt>
      <trkpt lat="43.26242" lon="5.88402">
        <ele>685</ele>
        <time>2022-02-13T15:14:55Z</time>
      </trkpt>
      <trkpt lat="43.26278" lon="5.88427">
        <ele>687</ele>
        <time>2022-02-13T15:15:04Z</time>
      </trkpt>
      <trkpt lat="43.26319" lon="5.88469">
        <ele>688</ele>
        <time>2022-02-13T15:15:16Z</time>
      </trkpt>
      <trkpt lat="43.26361" lon="5.88523">
        <ele>688</ele>
        <time>2022-02-13T15:15:30Z</time>
      </trkpt>
      <trkpt lat="43.26372" lon="5.88637">
        <ele>685</ele>
        <time>2022-02-13T15:15:49Z</time>
      </trkpt>
      <trkpt lat="43.26407" lon="5.88707">
        <ele>689</ele>
        <time>2022-02-13T15:16:04Z</time>
      </trkpt>
      <trkpt lat="43.26417" lon="5.88817">
        <ele>690</ele>
        <time>2022-02-13T15:16:22Z</time>
      </trkpt>
      <trkpt lat="43.26433" lon="5.88907">
        <ele>694</ele>
        <time>2022-02-13T15:16:38Z</time>
      </trkpt>
      <trkpt lat="43.26456" lon="5.88994">
        <ele>695</ele>
        <time>2022-02-13T15:16:54Z</time>
      </trkpt>
      <trkpt lat="43.26485" lon="5.89041">
        <ele>698</ele>
        <time>2022-02-13T15:17:04Z</time>
      </trkpt>
      <trkpt lat="43.2652" lon="5.89089">
        <ele>701</ele>
        <time>2022-02-13T15:17:16Z</time>
      </trkpt>
      <trkpt lat="43.26552" lon="5.89126">
        <ele>702</ele>
        <time>2022-02-13T15:17:26Z</time>
      </trkpt>
      <trkpt lat="43.26523" lon="5.89179">
        <ele>700</ele>
        <time>2022-02-13T15:17:37Z</time>
      </trkpt>
      <trkpt lat="43.2642" lon="5.89181">
        <ele>696</ele>
        <time>2022-02-13T15:18:01Z</time>
      </trkpt>
      <trkpt lat="43.26367" lon="5.89189">
        <ele>692</ele>
        <time>2022-02-13T15:18:14Z</time>
      </trkpt>
      <trkpt lat="43.26259" lon="5.89167">
        <ele>685</ele>
        <time>2022-02-13T15:18:39Z</time>
      </trkpt>
      <trkpt lat="43.26201" lon="5.8916">
        <ele>680</ele>
        <time>2022-02-13T15:18:53Z</time>
      </trkpt>
      <trkpt lat="43.26152" lon="5.89274">
        <ele>682</ele>
        <time>2022-02-13T15:19:15Z</time>
      </trkpt>
      <trkpt lat="43.26126" lon="5.89353">
        <ele>686</ele>
        <time>2022-02-13T15:19:30Z</time>
      </trkpt>
      <trkpt lat="43.26099" lon="5.89423">
        <ele>688</ele>
        <time>2022-02-13T15:19:43Z</time>
      </trkpt>
      <trkpt lat="43.26081" lon="5.89506">
        <ele>690</ele>
        <time>2022-02-13T15:19:58Z</time>
      </trkpt>
      <trkpt lat="43.26062" lon="5.89542">
        <ele>690</ele>
        <time>2022-02-13T15:20:06Z</time>
      </trkpt>
      <trkpt lat="43.26051" lon="5.8961">
        <ele>691</ele>
        <time>2022-02-13T15:20:18Z</time>
      </trkpt>
      <trkpt lat="43.26062" lon="5.89694">
        <ele>696</ele>
        <time>2022-02-13T15:20:32Z</time>
      </trkpt>
      <trkpt lat="43.26109" lon="5.899">
        <ele>712</ele>
        <time>2022-02-13T15:21:09Z</time>
      </trkpt>
      <trkpt lat="43.26163" lon="5.90027">
        <ele>725</ele>
        <time>2022-02-13T15:21:34Z</time>
      </trkpt>
      <trkpt lat="43.26209" lon="5.90123">
        <ele>739</ele>
        <time>2022-02-13T15:21:53Z</time>
      </trkpt>
      <trkpt lat="43.2622" lon="5.90174">
        <ele>741</ele>
        <time>2022-02-13T15:22:02Z</time>
      </trkpt>
      <trkpt lat="43.26178" lon="5.90221">
        <ele>739</ele>
        <time>2022-02-13T15:22:15Z</time>
      </trkpt>
      <trkpt lat="43.26128" lon="5.9025">
        <ele>742</ele>
        <time>2022-02-13T15:22:28Z</time>
      </trkpt>
      <trkpt lat="43.26104" lon="5.90261">
        <ele>744</ele>
        <time>2022-02-13T15:22:34Z</time>
      </trkpt>
      <trkpt lat="43.26083" lon="5.90289">
        <ele>747</ele>
        <time>2022-02-13T15:22:40Z</time>
      </trkpt>
      <trkpt lat="43.26062" lon="5.90322">
        <ele>751</ele>
        <time>2022-02-13T15:22:48Z</time>
      </trkpt>
      <trkpt lat="43.26023" lon="5.90437">
        <ele>758</ele>
        <time>2022-02-13T15:23:09Z</time>
      </trkpt>
      <trkpt lat="43.26002" lon="5.90491">
        <ele>759</ele>
        <time>2022-02-13T15:23:20Z</time>
      </trkpt>
      <trkpt lat="43.25965" lon="5.90513">
        <ele>757</ele>
        <time>2022-02-13T15:23:29Z</time>
      </trkpt>
      <trkpt lat="43.25878" lon="5.90513">
        <ele>751</ele>
        <time>2022-02-13T15:23:50Z</time>
      </trkpt>
      <trkpt lat="43.25839" lon="5.90505">
        <ele>748</ele>
        <time>2022-02-13T15:23:59Z</time>
      </trkpt>
      <trkpt lat="43.25802" lon="5.90585">
        <ele>739</ele>
        <time>2022-02-13T15:24:15Z</time>
      </trkpt>
      <trkpt lat="43.25781" lon="5.90613">
        <ele>735</ele>
        <time>2022-02-13T15:24:22Z</time>
      </trkpt>
      <trkpt lat="43.25784" lon="5.90685">
        <ele>731</ele>
        <time>2022-02-13T15:24:34Z</time>
      </trkpt>
      <trkpt lat="43.2577" lon="5.90762">
        <ele>724</ele>
        <time>2022-02-13T15:24:48Z</time>
      </trkpt>
      <trkpt lat="43.25755" lon="5.90802">
        <ele>718</ele>
        <time>2022-02-13T15:24:55Z</time>
      </trkpt>
      <trkpt lat="43.25749" lon="5.90867">
        <ele>710</ele>
        <time>2022-02-13T15:25:06Z</time>
      </trkpt>
      <trkpt lat="43.25734" lon="5.90925">
        <ele>704</ele>
        <time>2022-02-13T15:25:17Z</time>
      </trkpt>
      <trkpt lat="43.25715" lon="5.90979">
        <ele>699</ele>
        <time>2022-02-13T15:25:27Z</time>
      </trkpt>
      <trkpt lat="43.25668" lon="5.9104">
        <ele>694</ele>
        <time>2022-02-13T15:25:42Z</time>
      </trkpt>
      <trkpt lat="43.25644" lon="5.9108">
        <ele>692</ele>
        <time>2022-02-13T15:25:51Z</time>
      </trkpt>
      <trkpt lat="43.25637" lon="5.91135">
        <ele>686</ele>
        <time>2022-02-13T15:26:00Z</time>
      </trkpt>
      <trkpt lat="43.25615" lon="5.91217">
        <ele>681</ele>
        <time>2022-02-13T15:26:15Z</time>
      </trkpt>
      <trkpt lat="43.2561" lon="5.91303">
        <ele>673</ele>
        <time>2022-02-13T15:26:30Z</time>
      </trkpt>
      <trkpt lat="43.256" lon="5.91386">
        <ele>669</ele>
        <time>2022-02-13T15:26:44Z</time>
      </trkpt>
      <trkpt lat="43.25594" lon="5.91466">
        <ele>664</ele>
        <time>2022-02-13T15:26:58Z</time>
      </trkpt>
      <trkpt lat="43.25529" lon="5.91621">
        <ele>661</ele>
        <time>2022-02-13T15:27:28Z</time>
      </trkpt>
      <trkpt lat="43.25469" lon="5.91726">
        <ele>659</ele>
        <time>2022-02-13T15:27:51Z</time>
      </trkpt>
      <trkpt lat="43.25458" lon="5.91791">
        <ele>652</ele>
        <time>2022-02-13T15:28:02Z</time>
      </trkpt>
      <trkpt lat="43.25539" lon="5.91827">
        <ele>641</ele>
        <time>2022-02-13T15:28:22Z</time>
      </trkpt>
      <trkpt lat="43.25615" lon="5.91812">
        <ele>633</ele>
        <time>2022-02-13T15:28:40Z</time>
      </trkpt>
      <trkpt lat="43.25689" lon="5.91805">
        <ele>618</ele>
        <time>2022-02-13T15:28:58Z</time>
      </trkpt>
      <trkpt lat="43.25847" lon="5.91769">
        <ele>600</ele>
        <time>2022-02-13T15:29:35Z</time>
      </trkpt>
      <trkpt lat="43.25873" lon="5.91704">
        <ele>595</ele>
        <time>2022-02-13T15:29:48Z</time>
      </trkpt>
      <trkpt lat="43.25883" lon="5.9165">
        <ele>590</ele>
        <time>2022-02-13T15:29:57Z</time>
      </trkpt>
      <trkpt lat="43.25899" lon="5.91527">
        <ele>580</ele>
        <time>2022-02-13T15:30:18Z</time>
      </trkpt>
      <trkpt lat="43.25839" lon="5.91365">
        <ele>591</ele>
        <time>2022-02-13T15:30:49Z</time>
      </trkpt>
      <trkpt lat="43.25931" lon="5.91383">
        <ele>583</ele>
        <time>2022-02-13T15:31:11Z</time>
      </trkpt>
      <trkpt lat="43.25994" lon="5.91426">
        <ele>580</ele>
        <time>2022-02-13T15:31:27Z</time>
      </trkpt>
      <trkpt lat="43.26057" lon="5.91477">
        <ele>576</ele>
        <time>2022-02-13T15:31:44Z</time>
      </trkpt>
      <trkpt lat="43.26133" lon="5.91506">
        <ele>573</ele>
        <time>2022-02-13T15:32:03Z</time>
      </trkpt>
      <trkpt lat="43.26204" lon="5.9148">
        <ele>572</ele>
        <time>2022-02-13T15:32:20Z</time>
      </trkpt>
      <trkpt lat="43.26257" lon="5.91415">
        <ele>572</ele>
        <time>2022-02-13T15:32:37Z</time>
      </trkpt>
      <trkpt lat="43.26367" lon="5.91253">
        <ele>579</ele>
        <time>2022-02-13T15:33:14Z</time>
      </trkpt>
      <trkpt lat="43.26399" lon="5.91195">
        <ele>571</ele>
        <time>2022-02-13T15:33:27Z</time>
      </trkpt>
      <trkpt lat="43.26406" lon="5.91155">
        <ele>567</ele>
        <time>2022-02-13T15:33:34Z</time>
      </trkpt>
      <trkpt lat="43.2637" lon="5.9113">
        <ele>578</ele>
        <time>2022-02-13T15:33:43Z</time>
      </trkpt>
      <trkpt lat="43.26362" lon="5.91087">
        <ele>578</ele>
        <time>2022-02-13T15:33:51Z</time>
      </trkpt>
      <trkpt lat="43.26443" lon="5.90986">
        <ele>556</ele>
        <time>2022-02-13T15:34:16Z</time>
      </trkpt>
      <trkpt lat="43.26464" lon="5.90928">
        <ele>556</ele>
        <time>2022-02-13T15:34:27Z</time>
      </trkpt>
      <trkpt lat="43.26533" lon="5.90932">
        <ele>543</ele>
        <time>2022-02-13T15:34:43Z</time>
      </trkpt>
      <trkpt lat="43.26596" lon="5.90961">
        <ele>536</ele>
        <time>2022-02-13T15:34:59Z</time>
      </trkpt>
      <trkpt lat="43.26653" lon="5.91015">
        <ele>520</ele>
        <time>2022-02-13T15:35:15Z</time>
      </trkpt>
      <trkpt lat="43.26727" lon="5.91004">
        <ele>517</ele>
        <time>2022-02-13T15:35:32Z</time>
      </trkpt>
      <trkpt lat="43.26803" lon="5.90997">
        <ele>507</ele>
        <time>2022-02-13T15:35:50Z</time>
      </trkpt>
      <trkpt lat="43.26872" lon="5.90964">
        <ele>499</ele>
        <time>2022-02-13T15:36:07Z</time>
      </trkpt>
      <trkpt lat="43.26927" lon="5.9091">
        <ele>488</ele>
        <time>2022-02-13T15:36:23Z</time>
      </trkpt>
      <trkpt lat="43.26942" lon="5.90852">
        <ele>487</ele>
        <time>2022-02-13T15:36:33Z</time>
      </trkpt>
      <trkpt lat="43.2694" lon="5.90798">
        <ele>488</ele>
        <time>2022-02-13T15:36:43Z</time>
      </trkpt>
      <trkpt lat="43.26932" lon="5.90759">
        <ele>490</ele>
        <time>2022-02-13T15:36:50Z</time>
      </trkpt>
      <trkpt lat="43.26927" lon="5.90621">
        <ele>484</ele>
        <time>2022-02-13T15:37:13Z</time>
      </trkpt>
      <trkpt lat="43.26953" lon="5.9056">
        <ele>476</ele>
        <time>2022-02-13T15:37:25Z</time>
      </trkpt>
      <trkpt lat="43.27008" lon="5.9039">
        <ele>472</ele>
        <time>2022-02-13T15:37:57Z</time>
      </trkpt>
      <trkpt lat="43.27076" lon="5.90217">
        <ele>456</ele>
        <time>2022-02-13T15:38:30Z</time>
      </trkpt>
      <trkpt lat="43.27124" lon="5.9017">
        <ele>449</ele>
        <time>2022-02-13T15:38:44Z</time>
      </trkpt>
      <trkpt lat="43.27195" lon="5.90167">
        <ele>436</ele>
        <time>2022-02-13T15:39:00Z</time>
      </trkpt>
      <trkpt lat="43.27297" lon="5.90246">
        <ele>415</ele>
        <time>2022-02-13T15:39:28Z</time>
      </trkpt>
      <trkpt lat="43.2735" lon="5.90196">
        <ele>408</ele>
        <time>2022-02-13T15:39:43Z</time>
      </trkpt>
      <trkpt lat="43.2746" lon="5.90109">
        <ele>390</ele>
        <time>2022-02-13T15:40:12Z</time>
      </trkpt>
      <trkpt lat="43.27528" lon="5.90073">
        <ele>378</ele>
        <time>2022-02-13T15:40:29Z</time>
      </trkpt>
      <trkpt lat="43.27563" lon="5.90019">
        <ele>372</ele>
        <time>2022-02-13T15:40:42Z</time>
      </trkpt>
      <trkpt lat="43.27573" lon="5.89943">
        <ele>371</ele>
        <time>2022-02-13T15:40:55Z</time>
      </trkpt>
      <trkpt lat="43.27578" lon="5.89853">
        <ele>367</ele>
        <time>2022-02-13T15:41:10Z</time>
      </trkpt>
    </trkseg>
  </trk>
</gpx>